createdAt,value
2023-04-19T00:00:28.351Z,51.9
2023-04-19T00:05:46.489Z,51.2
2023-04-19T00:11:04.748Z,51.9
2023-04-19T00:16:23.238Z,52.8
2023-04-19T00:21:41.388Z,52.4
2023-04-19T00:26:59.627Z,51.4
2023-04-19T00:32:17.882Z,51.5
2023-04-19T00:37:36.278Z,51.7
2023-04-19T00:42:54.655Z,52.5
2023-04-19T00:48:13.006Z,52.1
2023-04-19T00:53:31.328Z,51.6
2023-04-19T00:58:49.928Z,52.8
2023-04-19T01:03:52.999Z,52
2023-04-19T01:09:11.831Z,51.7
2023-04-19T01:14:30.214Z,52
2023-04-19T01:19:48.357Z,52
2023-04-19T01:25:06.705Z,51.8
2023-04-19T01:30:25.087Z,51.7
2023-04-19T01:35:43.422Z,52.4
2023-04-19T01:41:01.967Z,53
2023-04-19T01:46:20.385Z,52
2023-04-19T01:51:38.989Z,52.2
2023-04-19T01:56:41.886Z,52.4
2023-04-19T02:02:00.637Z,51.9
2023-04-19T02:07:18.867Z,52.4
2023-04-19T02:12:37.206Z,53.5
2023-04-19T02:17:55.566Z,53
2023-04-19T02:23:13.805Z,52.3
2023-04-19T02:28:32.247Z,52.4
2023-04-19T02:33:50.432Z,52.7
2023-04-19T02:39:08.593Z,53
2023-04-19T02:44:26.925Z,53.1
2023-04-19T02:49:45.217Z,52.5
2023-04-19T02:55:03.562Z,53.2
2023-04-19T03:00:21.712Z,53.2
2023-04-19T03:05:39.910Z,52.7
2023-04-19T03:10:58.205Z,53.2
2023-04-19T03:16:16.899Z,53.2
2023-04-19T03:21:35.343Z,52.6
2023-04-19T03:26:53.525Z,53.2
2023-04-19T03:32:11.874Z,53.4
2023-04-19T03:37:30.064Z,53
2023-04-19T03:42:48.565Z,53
2023-04-19T03:48:07.253Z,52.3
2023-04-19T03:53:25.629Z,53.1
2023-04-19T03:58:43.961Z,53.1
2023-04-19T04:04:05.878Z,52.4
2023-04-19T04:09:24.123Z,52.8
2023-04-19T04:14:42.579Z,51.9
2023-04-19T04:20:01.110Z,52
2023-04-19T04:25:23.643Z,52.1
2023-04-19T04:30:42.008Z,51.6
2023-04-19T04:36:00.216Z,49.2
2023-04-19T04:41:18.918Z,46.6
2023-04-19T04:46:38.046Z,46.5
2023-04-19T04:51:56.550Z,47.6
2023-04-19T04:57:14.751Z,46.8
2023-04-19T05:02:33.649Z,48.1
2023-04-19T05:07:51.920Z,48.6
2023-04-19T05:13:10.335Z,49.5
2023-04-19T05:18:28.626Z,49.7
2023-04-19T05:23:46.965Z,49.1
2023-04-19T05:29:05.384Z,49.4
2023-04-19T05:34:24.064Z,49.3
2023-04-19T05:39:45.171Z,50.2
2023-04-19T05:45:06.745Z,50
2023-04-19T05:50:24.981Z,49.4
2023-04-19T05:55:43.209Z,49.9
2023-04-19T06:01:01.678Z,50
2023-04-19T06:11:52.439Z,49.6
2023-04-19T06:17:10.936Z,50.2
2023-04-19T06:22:29.389Z,49.4
2023-04-19T06:27:47.987Z,50
2023-04-19T07:12:04.247Z,49.7
2023-04-19T07:17:22.576Z,48.9
2023-04-19T07:22:41.115Z,48.9
2023-04-19T07:27:59.674Z,49.7
2023-04-19T07:33:18.078Z,48.8
2023-04-19T07:38:36.273Z,49.5
2023-04-19T07:43:54.557Z,48.9
2023-04-19T07:49:12.931Z,49.5
2023-04-19T07:54:31.320Z,49.4
2023-04-19T07:59:50.041Z,48.7
2023-04-19T08:05:09.378Z,49
2023-04-19T08:10:27.873Z,48.7
2023-04-19T08:16:24.247Z,49.4
2023-04-19T08:21:50.163Z,48.8
2023-04-19T08:27:08.724Z,48.7
2023-04-19T08:32:27.016Z,49.3
2023-04-19T08:37:46.407Z,48.6
2023-04-19T08:43:04.605Z,49.4
2023-04-19T08:48:23.313Z,49.7
2023-04-19T08:53:41.983Z,48.9
2023-04-19T08:59:20.970Z,48.7
2023-04-19T09:04:40.873Z,49.4
2023-04-19T09:10:05.407Z,49.6
2023-04-19T09:15:23.632Z,49
2023-04-19T09:20:42.224Z,49.6
2023-04-19T09:26:24.292Z,48.9
2023-04-19T09:31:53.036Z,49.5
2023-04-19T09:44:21.729Z,49
2023-04-19T09:49:55.665Z,48.9
2023-04-19T09:55:31.647Z,48.9
2023-04-19T10:01:16.124Z,48.9
2023-04-19T10:07:30.467Z,49.5
2023-04-19T10:13:22.522Z,49.5
2023-04-19T10:18:42.314Z,48.7
2023-04-19T10:24:00.519Z,49.6
2023-04-19T10:29:19.035Z,49
2023-04-19T10:34:37.280Z,48.6
2023-04-19T10:39:55.670Z,48.6
2023-04-19T10:45:14.177Z,48.5
2023-04-19T10:50:32.779Z,49.1
2023-04-19T10:55:51.153Z,48.7
2023-04-19T11:01:09.639Z,48.9
2023-04-19T11:06:27.932Z,49.4
2023-04-19T11:11:46.500Z,49.4
2023-04-19T11:17:05.409Z,48.9
2023-04-19T11:22:24.035Z,48.7
2023-04-19T11:27:42.598Z,49.3
2023-04-19T11:33:01.228Z,49.2
2023-04-19T11:38:19.576Z,48.9
2023-04-19T11:43:37.920Z,48.5
2023-04-19T11:48:56.544Z,48.5
2023-04-19T11:54:15.832Z,48.5
2023-04-19T11:59:34.372Z,48.7
2023-04-19T12:04:53.149Z,48.3
2023-04-19T12:10:11.947Z,48.8
2023-04-19T12:15:30.145Z,48.5
2023-04-19T12:20:48.779Z,48.6
2023-04-19T12:26:06.894Z,48.8
2023-04-19T12:31:25.389Z,49
2023-04-19T12:36:44.412Z,48.4
2023-04-19T12:42:02.657Z,48.3
2023-04-19T12:47:21.103Z,49.3
2023-04-19T12:52:39.534Z,48.6
2023-04-19T12:57:57.931Z,48.1
2023-04-19T13:03:16.976Z,49.1
2023-04-19T13:08:51.175Z,49.1
2023-04-19T13:14:09.389Z,48.4
2023-04-19T13:19:27.359Z,48.3
2023-04-19T13:24:45.788Z,49
2023-04-19T13:30:04.036Z,49.1
2023-04-19T13:35:23.602Z,48.3
2023-04-19T13:40:42.129Z,48.9
2023-04-19T13:46:00.513Z,49
2023-04-19T13:51:18.666Z,48.3
2023-04-19T13:56:37.150Z,49.1
2023-04-19T14:01:55.816Z,49.3
2023-04-19T14:07:14.713Z,49.6
2023-04-19T14:12:32.863Z,49.8
2023-04-19T14:17:51.035Z,48.8
2023-04-19T14:23:09.382Z,49.6
2023-04-19T14:28:30.781Z,49.5
2023-04-19T14:33:49.389Z,49.7
2023-04-19T14:39:07.691Z,49.7
2023-04-19T14:44:27.222Z,49.1
2023-04-19T14:49:45.674Z,49
2023-04-19T14:55:04.106Z,50
2023-04-19T15:00:22.315Z,49.3
2023-04-19T15:05:40.617Z,49.8
2023-04-19T15:10:58.929Z,49.4
2023-04-19T15:16:17.347Z,50.2
2023-04-19T15:21:35.853Z,50.4
2023-04-19T15:26:54.240Z,50
2023-04-19T15:32:12.612Z,49.7
2023-04-19T15:37:30.818Z,50.4
2023-04-19T15:42:50.024Z,49.6
2023-04-19T15:48:08.577Z,50.5
2023-04-19T15:53:27.137Z,47.4
2023-04-19T15:58:45.510Z,48.9
2023-04-19T16:04:04.953Z,48.9
2023-04-19T16:09:23.134Z,49.8
2023-04-19T16:14:41.827Z,49.2
2023-04-19T16:20:00.405Z,49.4
2023-04-19T16:25:18.651Z,50.3
2023-04-19T16:30:37.301Z,50.7
2023-04-19T16:35:55.509Z,51.7
2023-04-19T16:41:14.169Z,51.2
2023-04-19T16:46:32.808Z,52.2
2023-04-19T16:51:51.256Z,52.5
2023-04-19T16:57:09.653Z,51.4
2023-04-19T17:02:28.840Z,52.1
2023-04-19T17:07:47.183Z,52
2023-04-19T17:13:05.484Z,52.3
2023-04-19T17:18:23.800Z,51.4
2023-04-19T17:23:42.618Z,52.7
2023-04-19T17:29:02.906Z,52.4
2023-04-19T17:34:21.249Z,53.1
2023-04-19T17:39:41.065Z,53.2
2023-04-19T17:44:59.482Z,52.2
2023-04-19T17:50:18.010Z,52.6
2023-04-19T17:55:36.668Z,52.5
2023-04-19T18:00:55.360Z,53.3
2023-04-19T18:06:13.857Z,53.3
2023-04-19T18:11:32.082Z,52.6
2023-04-19T18:16:50.862Z,53.4
2023-04-19T18:22:09.273Z,53
2023-04-19T18:27:27.324Z,52.8
2023-04-19T18:32:45.692Z,53
2023-04-19T18:38:04.209Z,52
2023-04-19T18:43:22.491Z,52.7
2023-04-19T18:48:40.810Z,51.7
2023-04-19T18:53:59.517Z,51.7
2023-04-19T18:59:18.588Z,52.2
2023-04-19T19:05:00.560Z,51.8
2023-04-19T19:16:20.409Z,51.4
2023-04-19T19:21:38.851Z,51.6
2023-04-19T19:27:15.547Z,51.9
2023-04-19T19:32:34.842Z,52
2023-04-19T19:37:53.575Z,51.5
2023-04-19T19:43:11.945Z,52
2023-04-19T19:48:40.282Z,51.1
2023-04-19T19:53:59.280Z,51.8
2023-04-19T19:59:21.138Z,51.2
2023-04-19T20:04:43.326Z,51.8
2023-04-19T20:10:01.829Z,51.5
2023-04-19T20:15:19.856Z,51
2023-04-19T20:20:38.480Z,50.6
2023-04-19T20:25:56.751Z,51.4
2023-04-19T20:31:15.453Z,51.5
2023-04-19T20:36:33.918Z,51
2023-04-19T20:41:54.871Z,50.9
2023-04-19T20:47:13.279Z,51.7
2023-04-19T20:52:31.641Z,51
2023-04-19T20:57:50.001Z,51.2
2023-04-19T21:03:09.259Z,51.4
2023-04-19T21:08:27.885Z,51
2023-04-19T21:13:46.338Z,51.2
2023-04-19T21:19:04.599Z,51.1
2023-04-19T21:24:22.784Z,51.2
2023-04-19T21:29:41.030Z,51.5
2023-04-19T21:34:59.197Z,51.3
2023-04-19T21:40:17.781Z,51.7
2023-04-19T21:45:36.291Z,51.8
2023-04-19T21:50:54.829Z,51.7
2023-04-19T21:56:13.481Z,51.2
2023-04-19T22:01:31.672Z,51.7
2023-04-19T22:06:49.775Z,51.1
2023-04-19T22:12:08.185Z,50.9
2023-04-19T22:17:26.253Z,51.3
2023-04-19T22:22:44.472Z,51.5
2023-04-19T22:28:04.542Z,51.2
2023-04-19T22:33:23.966Z,51.7
2023-04-19T22:38:42.156Z,51.3
2023-04-19T22:44:00.914Z,51.1
2023-04-19T22:49:19.770Z,51.2
2023-04-19T22:54:37.925Z,51.1
2023-04-19T22:59:56.062Z,51.3
2023-04-19T23:05:14.255Z,52.2
2023-04-19T23:10:32.395Z,51.8
2023-04-19T23:15:50.878Z,51.7
2023-04-19T23:21:09.283Z,51.4
2023-04-19T23:26:27.703Z,51.5
2023-04-19T23:31:46.841Z,52.4
2023-04-19T23:37:05.538Z,52.1
2023-04-19T23:42:23.716Z,51.6
2023-04-19T23:47:42.200Z,51.5
2023-04-19T23:53:00.708Z,52.3
2023-04-19T23:58:19.270Z,52.6
